sensor_id;sensor_type;location;lat;lon;timestamp;P1;durP1;ratioP1;P2;durP2;ratioP2
65835;SDS011;52595;51.608;7.216;2024-03-02T00:02:00;3.90;;;2.40;;
65835;SDS011;52595;51.608;7.216;2024-03-02T00:04:26;3.88;;;2.30;;
65835;SDS011;52595;51.608;7.216;2024-03-02T00:06:52;3.10;;;2.20;;
65835;SDS011;52595;51.608;7.216;2024-03-02T00:09:19;4.20;;;2.38;;
65835;SDS011;52595;51.608;7.216;2024-03-02T00:11:45;4.07;;;2.30;;
65835;SDS011;52595;51.608;7.216;2024-03-02T00:14:10;4.47;;;2.38;;
65835;SDS011;52595;51.608;7.216;2024-03-02T00:16:36;3.75;;;2.25;;
65835;SDS011;52595;51.608;7.216;2024-03-02T00:19:05;4.43;;;2.40;;
65835;SDS011;52595;51.608;7.216;2024-03-02T00:21:32;4.32;;;2.20;;
65835;SDS011;52595;51.608;7.216;2024-03-02T00:23:58;3.42;;;2.25;;
65835;SDS011;52595;51.608;7.216;2024-03-02T00:26:23;3.70;;;2.15;;
65835;SDS011;52595;51.608;7.216;2024-03-02T00:28:49;3.88;;;2.30;;
65835;SDS011;52595;51.608;7.216;2024-03-02T00:31:15;3.90;;;2.40;;
65835;SDS011;52595;51.608;7.216;2024-03-02T00:33:45;3.78;;;2.17;;
65835;SDS011;52595;51.608;7.216;2024-03-02T00:36:12;7.32;;;2.63;;
65835;SDS011;52595;51.608;7.216;2024-03-02T00:38:42;3.58;;;2.00;;
65835;SDS011;52595;51.608;7.216;2024-03-02T00:41:15;3.17;;;2.20;;
65835;SDS011;52595;51.608;7.216;2024-03-02T00:46:13;3.45;;;2.10;;
65835;SDS011;52595;51.608;7.216;2024-03-02T00:48:47;3.55;;;2.15;;
65835;SDS011;52595;51.608;7.216;2024-03-02T00:51:15;3.88;;;2.53;;
65835;SDS011;52595;51.608;7.216;2024-03-02T00:53:41;3.67;;;2.03;;
65835;SDS011;52595;51.608;7.216;2024-03-02T00:56:08;2.78;;;1.90;;
65835;SDS011;52595;51.608;7.216;2024-03-02T00:58:35;3.17;;;2.00;;
65835;SDS011;52595;51.608;7.216;2024-03-02T01:01:01;3.45;;;2.10;;
65835;SDS011;52595;51.608;7.216;2024-03-02T01:03:26;2.63;;;2.05;;
65835;SDS011;52595;51.608;7.216;2024-03-02T01:05:52;4.15;;;2.20;;
65835;SDS011;52595;51.608;7.216;2024-03-02T01:08:17;3.28;;;2.20;;
65835;SDS011;52595;51.608;7.216;2024-03-02T01:10:43;4.47;;;2.05;;
65835;SDS011;52595;51.608;7.216;2024-03-02T01:13:08;3.58;;;2.28;;
65835;SDS011;52595;51.608;7.216;2024-03-02T01:15:34;3.33;;;2.28;;
65835;SDS011;52595;51.608;7.216;2024-03-02T01:17:59;3.75;;;2.10;;
65835;SDS011;52595;51.608;7.216;2024-03-02T01:20:25;4.00;;;2.00;;
65835;SDS011;52595;51.608;7.216;2024-03-02T01:22:50;3.95;;;2.22;;
65835;SDS011;52595;51.608;7.216;2024-03-02T01:25:16;5.55;;;2.22;;
65835;SDS011;52595;51.608;7.216;2024-03-02T01:27:42;3.63;;;2.03;;
65835;SDS011;52595;51.608;7.216;2024-03-02T01:30:08;2.53;;;1.85;;
65835;SDS011;52595;51.608;7.216;2024-03-02T01:32:33;3.63;;;2.20;;
65835;SDS011;52595;51.608;7.216;2024-03-02T01:34:59;4.30;;;2.10;;
65835;SDS011;52595;51.608;7.216;2024-03-02T01:37:24;5.03;;;2.13;;
65835;SDS011;52595;51.608;7.216;2024-03-02T01:39:50;4.78;;;2.10;;
65835;SDS011;52595;51.608;7.216;2024-03-02T01:42:15;4.40;;;1.98;;
65835;SDS011;52595;51.608;7.216;2024-03-02T01:44:40;2.97;;;1.80;;
65835;SDS011;52595;51.608;7.216;2024-03-02T01:47:06;2.88;;;1.85;;
65835;SDS011;52595;51.608;7.216;2024-03-02T01:49:31;3.38;;;1.95;;
65835;SDS011;52595;51.608;7.216;2024-03-02T01:51:59;3.20;;;1.88;;
65835;SDS011;52595;51.608;7.216;2024-03-02T01:54:24;3.78;;;2.10;;
65835;SDS011;52595;51.608;7.216;2024-03-02T01:56:49;2.67;;;1.80;;
65835;SDS011;52595;51.608;7.216;2024-03-02T01:59:15;3.65;;;1.90;;
65835;SDS011;52595;51.608;7.216;2024-03-02T02:01:40;3.08;;;1.80;;
65835;SDS011;52595;51.608;7.216;2024-03-02T02:04:06;4.85;;;2.00;;
65835;SDS011;52595;51.608;7.216;2024-03-02T02:06:31;3.35;;;1.83;;
65835;SDS011;52595;51.608;7.216;2024-03-02T02:08:57;2.53;;;1.70;;
65835;SDS011;52595;51.608;7.216;2024-03-02T02:11:22;3.90;;;2.00;;
65835;SDS011;52595;51.608;7.216;2024-03-02T02:13:48;3.70;;;1.90;;
65835;SDS011;52595;51.608;7.216;2024-03-02T02:16:14;3.33;;;1.80;;
65835;SDS011;52595;51.608;7.216;2024-03-02T02:18:39;3.28;;;2.00;;
65835;SDS011;52595;51.608;7.216;2024-03-02T02:21:04;3.08;;;1.90;;
65835;SDS011;52595;51.608;7.216;2024-03-02T02:23:30;2.42;;;1.63;;
65835;SDS011;52595;51.608;7.216;2024-03-02T02:25:55;4.43;;;2.00;;
65835;SDS011;52595;51.608;7.216;2024-03-02T02:28:21;4.30;;;2.17;;
65835;SDS011;52595;51.608;7.216;2024-03-02T02:30:46;3.17;;;1.80;;
65835;SDS011;52595;51.608;7.216;2024-03-02T02:33:11;3.17;;;1.80;;
65835;SDS011;52595;51.608;7.216;2024-03-02T02:35:37;5.28;;;1.92;;
65835;SDS011;52595;51.608;7.216;2024-03-02T02:38:02;4.25;;;2.00;;
65835;SDS011;52595;51.608;7.216;2024-03-02T02:40:28;2.72;;;1.70;;
65835;SDS011;52595;51.608;7.216;2024-03-02T02:42:57;3.63;;;1.80;;
65835;SDS011;52595;51.608;7.216;2024-03-02T02:45:24;4.40;;;1.98;;
65835;SDS011;52595;51.608;7.216;2024-03-02T02:47:49;3.10;;;1.70;;
65835;SDS011;52595;51.608;7.216;2024-03-02T02:50:15;2.97;;;1.73;;
65835;SDS011;52595;51.608;7.216;2024-03-02T02:52:40;2.97;;;1.70;;
65835;SDS011;52595;51.608;7.216;2024-03-02T02:55:08;2.92;;;1.70;;
65835;SDS011;52595;51.608;7.216;2024-03-02T02:57:38;2.90;;;1.70;;
65835;SDS011;52595;51.608;7.216;2024-03-02T03:00:05;2.72;;;1.70;;
65835;SDS011;52595;51.608;7.216;2024-03-02T03:02:38;2.15;;;1.70;;
65835;SDS011;52595;51.608;7.216;2024-03-02T03:05:05;2.25;;;1.70;;
65835;SDS011;52595;51.608;7.216;2024-03-02T03:07:31;2.33;;;1.75;;
65835;SDS011;52595;51.608;7.216;2024-03-02T03:09:57;3.70;;;1.85;;
65835;SDS011;52595;51.608;7.216;2024-03-02T03:12:23;4.57;;;1.77;;
65835;SDS011;52595;51.608;7.216;2024-03-02T03:14:48;2.58;;;1.80;;
65835;SDS011;52595;51.608;7.216;2024-03-02T03:17:13;3.25;;;1.80;;
65835;SDS011;52595;51.608;7.216;2024-03-02T03:19:39;3.42;;;1.80;;
65835;SDS011;52595;51.608;7.216;2024-03-02T03:22:04;2.63;;;1.70;;
65835;SDS011;52595;51.608;7.216;2024-03-02T03:24:29;2.78;;;1.50;;
65835;SDS011;52595;51.608;7.216;2024-03-02T03:26:55;2.67;;;1.73;;
65835;SDS011;52595;51.608;7.216;2024-03-02T03:29:20;3.90;;;1.90;;
65835;SDS011;52595;51.608;7.216;2024-03-02T03:31:45;2.67;;;1.70;;
65835;SDS011;52595;51.608;7.216;2024-03-02T03:34:11;2.10;;;1.70;;
65835;SDS011;52595;51.608;7.216;2024-03-02T03:36:40;4.35;;;1.83;;
65835;SDS011;52595;51.608;7.216;2024-03-02T03:39:06;2.47;;;1.67;;
65835;SDS011;52595;51.608;7.216;2024-03-02T03:41:31;2.60;;;1.80;;
65835;SDS011;52595;51.608;7.216;2024-03-02T03:43:57;2.22;;;1.70;;
65835;SDS011;52595;51.608;7.216;2024-03-02T03:46:22;2.78;;;1.80;;
65835;SDS011;52595;51.608;7.216;2024-03-02T03:48:47;3.40;;;1.90;;
65835;SDS011;52595;51.608;7.216;2024-03-02T03:51:13;2.47;;;1.90;;
65835;SDS011;52595;51.608;7.216;2024-03-02T03:53:39;2.75;;;1.88;;
65835;SDS011;52595;51.608;7.216;2024-03-02T03:56:04;2.88;;;1.80;;
65835;SDS011;52595;51.608;7.216;2024-03-02T03:58:30;2.72;;;1.80;;
65835;SDS011;52595;51.608;7.216;2024-03-02T04:00:55;2.50;;;1.67;;
65835;SDS011;52595;51.608;7.216;2024-03-02T04:03:21;3.58;;;1.77;;
65835;SDS011;52595;51.608;7.216;2024-03-02T04:05:47;3.30;;;1.80;;
65835;SDS011;52595;51.608;7.216;2024-03-02T04:08:12;2.30;;;1.80;;
65835;SDS011;52595;51.608;7.216;2024-03-02T04:10:37;3.33;;;1.65;;
65835;SDS011;52595;51.608;7.216;2024-03-02T04:13:03;3.33;;;1.90;;
65835;SDS011;52595;51.608;7.216;2024-03-02T04:15:28;2.55;;;1.80;;
65835;SDS011;52595;51.608;7.216;2024-03-02T04:17:54;3.00;;;1.70;;
65835;SDS011;52595;51.608;7.216;2024-03-02T04:20:20;3.17;;;1.92;;
65835;SDS011;52595;51.608;7.216;2024-03-02T04:22:45;4.88;;;2.00;;
65835;SDS011;52595;51.608;7.216;2024-03-02T04:25:11;2.70;;;1.85;;
65835;SDS011;52595;51.608;7.216;2024-03-02T04:27:36;4.60;;;1.88;;
65835;SDS011;52595;51.608;7.216;2024-03-02T04:30:02;3.50;;;2.00;;
65835;SDS011;52595;51.608;7.216;2024-03-02T04:32:28;3.25;;;1.50;;
65835;SDS011;52595;51.608;7.216;2024-03-02T04:34:54;3.25;;;1.60;;
65835;SDS011;52595;51.608;7.216;2024-03-02T04:37:19;4.60;;;1.90;;
65835;SDS011;52595;51.608;7.216;2024-03-02T04:39:45;2.28;;;1.50;;
65835;SDS011;52595;51.608;7.216;2024-03-02T04:42:10;3.13;;;1.73;;
65835;SDS011;52595;51.608;7.216;2024-03-02T04:44:35;2.63;;;1.77;;
65835;SDS011;52595;51.608;7.216;2024-03-02T04:47:03;6.47;;;2.50;;
65835;SDS011;52595;51.608;7.216;2024-03-02T04:49:28;2.45;;;1.70;;
65835;SDS011;52595;51.608;7.216;2024-03-02T04:51:55;4.25;;;1.63;;
65835;SDS011;52595;51.608;7.216;2024-03-02T04:54:20;3.72;;;1.80;;
65835;SDS011;52595;51.608;7.216;2024-03-02T04:56:46;3.83;;;2.20;;
65835;SDS011;52595;51.608;7.216;2024-03-02T04:59:20;3.80;;;2.00;;
65835;SDS011;52595;51.608;7.216;2024-03-02T05:01:45;2.97;;;1.60;;
65835;SDS011;52595;51.608;7.216;2024-03-02T05:04:12;2.47;;;1.70;;
65835;SDS011;52595;51.608;7.216;2024-03-02T05:06:38;5.05;;;1.75;;
65835;SDS011;52595;51.608;7.216;2024-03-02T05:09:05;2.30;;;1.77;;
65835;SDS011;52595;51.608;7.216;2024-03-02T05:11:30;2.30;;;1.70;;
65835;SDS011;52595;51.608;7.216;2024-03-02T05:14:02;3.15;;;1.90;;
65835;SDS011;52595;51.608;7.216;2024-03-02T05:16:28;3.53;;;1.73;;
65835;SDS011;52595;51.608;7.216;2024-03-02T05:18:53;3.55;;;1.80;;
65835;SDS011;52595;51.608;7.216;2024-03-02T05:21:18;4.03;;;1.77;;
65835;SDS011;52595;51.608;7.216;2024-03-02T05:23:44;3.75;;;1.98;;
65835;SDS011;52595;51.608;7.216;2024-03-02T05:26:09;6.18;;;1.90;;
65835;SDS011;52595;51.608;7.216;2024-03-02T05:28:37;3.25;;;1.80;;
65835;SDS011;52595;51.608;7.216;2024-03-02T05:31:03;2.88;;;1.60;;
65835;SDS011;52595;51.608;7.216;2024-03-02T05:33:29;4.07;;;2.10;;
65835;SDS011;52595;51.608;7.216;2024-03-02T05:35:56;7.40;;;1.80;;
65835;SDS011;52595;51.608;7.216;2024-03-02T05:38:21;2.40;;;1.67;;
65835;SDS011;52595;51.608;7.216;2024-03-02T05:40:47;3.58;;;1.70;;
65835;SDS011;52595;51.608;7.216;2024-03-02T05:43:13;2.13;;;1.80;;
65835;SDS011;52595;51.608;7.216;2024-03-02T05:45:38;5.13;;;1.75;;
65835;SDS011;52595;51.608;7.216;2024-03-02T05:48:04;4.30;;;1.90;;
65835;SDS011;52595;51.608;7.216;2024-03-02T05:50:32;5.75;;;2.10;;
65835;SDS011;52595;51.608;7.216;2024-03-02T05:52:58;3.30;;;1.80;;
65835;SDS011;52595;51.608;7.216;2024-03-02T05:55:23;3.90;;;1.77;;
65835;SDS011;52595;51.608;7.216;2024-03-02T05:57:49;2.63;;;1.67;;
65835;SDS011;52595;51.608;7.216;2024-03-02T06:00:28;4.25;;;1.95;;
65835;SDS011;52595;51.608;7.216;2024-03-02T06:02:53;2.92;;;1.80;;
65835;SDS011;52595;51.608;7.216;2024-03-02T06:05:19;4.18;;;1.80;;
65835;SDS011;52595;51.608;7.216;2024-03-02T06:07:44;2.78;;;1.90;;
65835;SDS011;52595;51.608;7.216;2024-03-02T06:10:10;3.33;;;1.88;;
65835;SDS011;52595;51.608;7.216;2024-03-02T06:12:36;5.05;;;1.70;;
65835;SDS011;52595;51.608;7.216;2024-03-02T06:15:01;3.75;;;1.88;;
65835;SDS011;52595;51.608;7.216;2024-03-02T06:17:27;5.63;;;2.10;;
65835;SDS011;52595;51.608;7.216;2024-03-02T06:19:52;2.85;;;1.80;;
65835;SDS011;52595;51.608;7.216;2024-03-02T06:22:17;3.80;;;1.80;;
65835;SDS011;52595;51.608;7.216;2024-03-02T06:24:44;2.50;;;1.70;;
65835;SDS011;52595;51.608;7.216;2024-03-02T06:27:09;3.08;;;1.80;;
65835;SDS011;52595;51.608;7.216;2024-03-02T06:29:35;3.17;;;2.13;;
65835;SDS011;52595;51.608;7.216;2024-03-02T06:32:00;4.72;;;2.28;;
65835;SDS011;52595;51.608;7.216;2024-03-02T06:34:25;4.57;;;2.15;;
65835;SDS011;52595;51.608;7.216;2024-03-02T06:36:51;3.30;;;2.10;;
65835;SDS011;52595;51.608;7.216;2024-03-02T06:39:16;3.65;;;2.05;;
65835;SDS011;52595;51.608;7.216;2024-03-02T06:41:41;4.72;;;2.30;;
65835;SDS011;52595;51.608;7.216;2024-03-02T06:44:12;3.83;;;2.40;;
65835;SDS011;52595;51.608;7.216;2024-03-02T06:46:37;4.53;;;2.40;;
65835;SDS011;52595;51.608;7.216;2024-03-02T06:49:03;4.65;;;2.40;;
65835;SDS011;52595;51.608;7.216;2024-03-02T06:51:29;5.10;;;2.45;;
65835;SDS011;52595;51.608;7.216;2024-03-02T06:53:54;5.68;;;2.45;;
65835;SDS011;52595;51.608;7.216;2024-03-02T06:56:20;3.60;;;2.33;;
65835;SDS011;52595;51.608;7.216;2024-03-02T06:58:46;3.40;;;2.40;;
65835;SDS011;52595;51.608;7.216;2024-03-02T07:01:12;5.05;;;2.78;;
65835;SDS011;52595;51.608;7.216;2024-03-02T07:03:37;5.00;;;2.70;;
65835;SDS011;52595;51.608;7.216;2024-03-02T07:06:04;7.75;;;2.80;;
65835;SDS011;52595;51.608;7.216;2024-03-02T07:08:30;4.93;;;2.67;;
65835;SDS011;52595;51.608;7.216;2024-03-02T07:10:55;5.75;;;2.47;;
65835;SDS011;52595;51.608;7.216;2024-03-02T07:13:21;5.32;;;2.50;;
65835;SDS011;52595;51.608;7.216;2024-03-02T07:15:47;5.63;;;2.70;;
65835;SDS011;52595;51.608;7.216;2024-03-02T07:18:28;6.65;;;2.88;;
65835;SDS011;52595;51.608;7.216;2024-03-02T07:20:58;5.90;;;2.83;;
65835;SDS011;52595;51.608;7.216;2024-03-02T07:23:25;6.25;;;3.03;;
65835;SDS011;52595;51.608;7.216;2024-03-02T07:25:52;7.95;;;2.83;;
65835;SDS011;52595;51.608;7.216;2024-03-02T07:28:21;6.07;;;3.35;;
65835;SDS011;52595;51.608;7.216;2024-03-02T07:30:50;4.78;;;3.17;;
65835;SDS011;52595;51.608;7.216;2024-03-02T07:33:29;6.32;;;2.85;;
65835;SDS011;52595;51.608;7.216;2024-03-02T07:35:58;4.15;;;2.70;;
65835;SDS011;52595;51.608;7.216;2024-03-02T07:38:25;7.03;;;2.80;;
65835;SDS011;52595;51.608;7.216;2024-03-02T07:40:52;5.38;;;2.97;;
65835;SDS011;52595;51.608;7.216;2024-03-02T07:43:20;7.07;;;3.08;;
65835;SDS011;52595;51.608;7.216;2024-03-02T07:45:46;4.55;;;2.65;;
65835;SDS011;52595;51.608;7.216;2024-03-02T07:48:12;4.50;;;2.58;;
65835;SDS011;52595;51.608;7.216;2024-03-02T07:50:37;4.35;;;2.70;;
65835;SDS011;52595;51.608;7.216;2024-03-02T07:53:04;4.88;;;2.70;;
65835;SDS011;52595;51.608;7.216;2024-03-02T07:55:30;5.15;;;2.65;;
65835;SDS011;52595;51.608;7.216;2024-03-02T07:57:56;6.20;;;2.70;;
65835;SDS011;52595;51.608;7.216;2024-03-02T08:00:21;5.03;;;2.70;;
65835;SDS011;52595;51.608;7.216;2024-03-02T08:02:48;5.00;;;2.50;;
65835;SDS011;52595;51.608;7.216;2024-03-02T08:05:15;4.68;;;2.72;;
65835;SDS011;52595;51.608;7.216;2024-03-02T08:07:41;4.57;;;2.63;;
65835;SDS011;52595;51.608;7.216;2024-03-02T08:10:08;7.22;;;2.50;;
65835;SDS011;52595;51.608;7.216;2024-03-02T08:12:34;5.20;;;2.88;;
65835;SDS011;52595;51.608;7.216;2024-03-02T08:14:59;4.35;;;2.70;;
65835;SDS011;52595;51.608;7.216;2024-03-02T08:17:25;5.50;;;2.60;;
65835;SDS011;52595;51.608;7.216;2024-03-02T08:19:50;5.47;;;2.88;;
65835;SDS011;52595;51.608;7.216;2024-03-02T08:22:16;6.35;;;2.42;;
65835;SDS011;52595;51.608;7.216;2024-03-02T08:24:41;6.40;;;2.60;;
65835;SDS011;52595;51.608;7.216;2024-03-02T08:27:07;3.80;;;2.40;;
65835;SDS011;52595;51.608;7.216;2024-03-02T08:29:32;3.88;;;2.65;;
65835;SDS011;52595;51.608;7.216;2024-03-02T08:31:57;5.93;;;2.53;;
65835;SDS011;52595;51.608;7.216;2024-03-02T08:34:23;6.13;;;2.75;;
65835;SDS011;52595;51.608;7.216;2024-03-02T08:36:48;4.63;;;2.55;;
65835;SDS011;52595;51.608;7.216;2024-03-02T08:39:14;6.18;;;2.80;;
65835;SDS011;52595;51.608;7.216;2024-03-02T08:41:43;4.07;;;2.65;;
65835;SDS011;52595;51.608;7.216;2024-03-02T08:44:09;4.80;;;2.58;;
65835;SDS011;52595;51.608;7.216;2024-03-02T08:46:35;4.97;;;2.55;;
65835;SDS011;52595;51.608;7.216;2024-03-02T08:49:01;5.22;;;2.60;;
65835;SDS011;52595;51.608;7.216;2024-03-02T08:51:26;5.18;;;2.40;;
65835;SDS011;52595;51.608;7.216;2024-03-02T08:53:51;4.28;;;2.63;;
65835;SDS011;52595;51.608;7.216;2024-03-02T08:56:17;4.65;;;2.47;;
65835;SDS011;52595;51.608;7.216;2024-03-02T08:58:43;3.63;;;2.42;;
65835;SDS011;52595;51.608;7.216;2024-03-02T09:01:09;3.13;;;2.40;;
65835;SDS011;52595;51.608;7.216;2024-03-02T09:03:35;4.15;;;2.30;;
65835;SDS011;52595;51.608;7.216;2024-03-02T09:06:00;4.45;;;2.38;;
65835;SDS011;52595;51.608;7.216;2024-03-02T09:08:26;6.00;;;2.30;;
65835;SDS011;52595;51.608;7.216;2024-03-02T09:10:51;4.45;;;2.80;;
65835;SDS011;52595;51.608;7.216;2024-03-02T09:13:17;3.50;;;2.35;;
65835;SDS011;52595;51.608;7.216;2024-03-02T09:15:43;5.63;;;2.30;;
65835;SDS011;52595;51.608;7.216;2024-03-02T09:18:09;4.35;;;2.50;;
65835;SDS011;52595;51.608;7.216;2024-03-02T09:20:35;4.07;;;2.58;;
65835;SDS011;52595;51.608;7.216;2024-03-02T09:23:00;3.05;;;2.20;;
65835;SDS011;52595;51.608;7.216;2024-03-02T09:25:25;5.38;;;2.35;;
65835;SDS011;52595;51.608;7.216;2024-03-02T09:27:51;3.03;;;2.28;;
65835;SDS011;52595;51.608;7.216;2024-03-02T09:30:16;5.03;;;2.45;;
65835;SDS011;52595;51.608;7.216;2024-03-02T09:32:42;4.43;;;2.60;;
65835;SDS011;52595;51.608;7.216;2024-03-02T09:35:07;4.05;;;2.50;;
65835;SDS011;52595;51.608;7.216;2024-03-02T09:37:34;3.78;;;2.25;;
65835;SDS011;52595;51.608;7.216;2024-03-02T09:39:59;3.35;;;2.45;;
65835;SDS011;52595;51.608;7.216;2024-03-02T09:42:25;3.35;;;2.28;;
65835;SDS011;52595;51.608;7.216;2024-03-02T09:44:51;3.22;;;2.70;;
65835;SDS011;52595;51.608;7.216;2024-03-02T09:47:17;3.63;;;2.45;;
65835;SDS011;52595;51.608;7.216;2024-03-02T09:49:42;3.72;;;2.42;;
65835;SDS011;52595;51.608;7.216;2024-03-02T09:52:08;3.90;;;2.30;;
65835;SDS011;52595;51.608;7.216;2024-03-02T09:54:35;3.50;;;2.40;;
65835;SDS011;52595;51.608;7.216;2024-03-02T09:57:01;3.08;;;2.67;;
65835;SDS011;52595;51.608;7.216;2024-03-02T09:59:27;4.00;;;2.53;;
65835;SDS011;52595;51.608;7.216;2024-03-02T10:02:01;3.15;;;2.67;;
65835;SDS011;52595;51.608;7.216;2024-03-02T10:04:28;2.90;;;2.47;;
65835;SDS011;52595;51.608;7.216;2024-03-02T10:07:10;3.45;;;2.65;;
65835;SDS011;52595;51.608;7.216;2024-03-02T10:09:42;2.60;;;2.40;;
65835;SDS011;52595;51.608;7.216;2024-03-02T10:12:10;3.95;;;2.53;;
65835;SDS011;52595;51.608;7.216;2024-03-02T10:14:37;3.22;;;2.60;;
65835;SDS011;52595;51.608;7.216;2024-03-02T10:17:04;2.95;;;2.65;;
65835;SDS011;52595;51.608;7.216;2024-03-02T10:19:31;3.63;;;2.78;;
65835;SDS011;52595;51.608;7.216;2024-03-02T10:22:00;3.95;;;2.63;;
65835;SDS011;52595;51.608;7.216;2024-03-02T10:24:27;4.45;;;2.88;;
65835;SDS011;52595;51.608;7.216;2024-03-02T10:26:59;3.95;;;3.05;;
65835;SDS011;52595;51.608;7.216;2024-03-02T10:29:24;3.08;;;2.78;;
65835;SDS011;52595;51.608;7.216;2024-03-02T10:31:53;3.97;;;2.80;;
65835;SDS011;52595;51.608;7.216;2024-03-02T10:34:19;4.03;;;2.97;;
65835;SDS011;52595;51.608;7.216;2024-03-02T10:36:46;4.93;;;3.15;;
65835;SDS011;52595;51.608;7.216;2024-03-02T10:39:12;3.22;;;2.80;;
65835;SDS011;52595;51.608;7.216;2024-03-02T10:41:39;4.38;;;3.17;;
65835;SDS011;52595;51.608;7.216;2024-03-02T10:44:05;4.22;;;3.15;;
65835;SDS011;52595;51.608;7.216;2024-03-02T10:46:33;4.32;;;3.30;;
65835;SDS011;52595;51.608;7.216;2024-03-02T10:49:00;3.63;;;3.33;;
65835;SDS011;52595;51.608;7.216;2024-03-02T10:51:29;4.07;;;3.10;;
65835;SDS011;52595;51.608;7.216;2024-03-02T10:54:01;4.18;;;3.30;;
65835;SDS011;52595;51.608;7.216;2024-03-02T10:56:29;3.70;;;3.40;;
65835;SDS011;52595;51.608;7.216;2024-03-02T11:01:33;5.43;;;3.60;;
65835;SDS011;52595;51.608;7.216;2024-03-02T11:03:59;3.95;;;3.60;;
65835;SDS011;52595;51.608;7.216;2024-03-02T11:06:29;4.07;;;3.67;;
65835;SDS011;52595;51.608;7.216;2024-03-02T11:08:58;7.38;;;3.80;;
65835;SDS011;52595;51.608;7.216;2024-03-02T11:11:32;4.55;;;3.70;;
65835;SDS011;52595;51.608;7.216;2024-03-02T11:14:00;4.40;;;4.00;;
65835;SDS011;52595;51.608;7.216;2024-03-02T11:16:34;5.40;;;4.20;;
65835;SDS011;52595;51.608;7.216;2024-03-02T11:21:31;5.15;;;4.40;;
65835;SDS011;52595;51.608;7.216;2024-03-02T11:23:58;4.90;;;4.40;;
65835;SDS011;52595;51.608;7.216;2024-03-02T11:26:23;5.47;;;4.50;;
65835;SDS011;52595;51.608;7.216;2024-03-02T11:28:49;5.13;;;4.63;;
65835;SDS011;52595;51.608;7.216;2024-03-02T11:31:15;5.47;;;4.97;;
65835;SDS011;52595;51.608;7.216;2024-03-02T11:33:40;6.30;;;5.28;;
65835;SDS011;52595;51.608;7.216;2024-03-02T11:36:09;6.00;;;5.50;;
65835;SDS011;52595;51.608;7.216;2024-03-02T11:38:34;6.05;;;5.55;;
65835;SDS011;52595;51.608;7.216;2024-03-02T11:41:01;7.03;;;6.05;;
65835;SDS011;52595;51.608;7.216;2024-03-02T11:43:28;6.63;;;6.13;;
65835;SDS011;52595;51.608;7.216;2024-03-02T11:45:57;7.88;;;7.20;;
65835;SDS011;52595;51.608;7.216;2024-03-02T11:48:29;8.10;;;7.40;;
65835;SDS011;52595;51.608;7.216;2024-03-02T11:50:57;8.35;;;7.65;;
65835;SDS011;52595;51.608;7.216;2024-03-02T11:53:23;8.20;;;7.50;;
65835;SDS011;52595;51.608;7.216;2024-03-02T11:55:49;8.52;;;7.80;;
65835;SDS011;52595;51.608;7.216;2024-03-02T11:58:15;8.65;;;7.80;;
65835;SDS011;52595;51.608;7.216;2024-03-02T12:00:52;8.52;;;7.80;;
65835;SDS011;52595;51.608;7.216;2024-03-02T12:03:18;8.57;;;7.72;;
65835;SDS011;52595;51.608;7.216;2024-03-02T12:05:48;8.73;;;8.02;;
65835;SDS011;52595;51.608;7.216;2024-03-02T12:08:14;10.23;;;8.60;;
65835;SDS011;52595;51.608;7.216;2024-03-02T12:10:40;9.20;;;8.40;;
65835;SDS011;52595;51.608;7.216;2024-03-02T12:13:06;9.55;;;8.65;;
65835;SDS011;52595;51.608;7.216;2024-03-02T12:15:35;9.60;;;8.80;;
65835;SDS011;52595;51.608;7.216;2024-03-02T12:18:02;9.80;;;8.90;;
65835;SDS011;52595;51.608;7.216;2024-03-02T12:20:29;9.98;;;8.98;;
65835;SDS011;52595;51.608;7.216;2024-03-02T12:22:55;9.73;;;8.93;;
65835;SDS011;52595;51.608;7.216;2024-03-02T12:25:23;9.80;;;9.00;;
65835;SDS011;52595;51.608;7.216;2024-03-02T12:27:54;10.27;;;9.27;;
65835;SDS011;52595;51.608;7.216;2024-03-02T12:30:20;10.10;;;9.20;;
65835;SDS011;52595;51.608;7.216;2024-03-02T12:32:46;9.80;;;9.00;;
65835;SDS011;52595;51.608;7.216;2024-03-02T12:35:12;9.88;;;9.00;;
65835;SDS011;52595;51.608;7.216;2024-03-02T12:37:42;9.77;;;8.90;;
65835;SDS011;52595;51.608;7.216;2024-03-02T12:40:09;9.48;;;8.57;;
65835;SDS011;52595;51.608;7.216;2024-03-02T12:42:36;9.13;;;8.32;;
65835;SDS011;52595;51.608;7.216;2024-03-02T12:45:02;9.07;;;8.27;;
65835;SDS011;52595;51.608;7.216;2024-03-02T12:47:28;8.80;;;8.00;;
65835;SDS011;52595;51.608;7.216;2024-03-02T12:49:54;9.10;;;8.23;;
65835;SDS011;52595;51.608;7.216;2024-03-02T12:52:21;9.10;;;8.30;;
65835;SDS011;52595;51.608;7.216;2024-03-02T12:54:46;9.20;;;8.40;;
65835;SDS011;52595;51.608;7.216;2024-03-02T12:57:16;10.25;;;8.25;;
65835;SDS011;52595;51.608;7.216;2024-03-02T12:59:45;9.20;;;8.38;;
65835;SDS011;52595;51.608;7.216;2024-03-02T13:02:16;11.10;;;8.23;;
65835;SDS011;52595;51.608;7.216;2024-03-02T13:04:42;8.77;;;8.07;;
65835;SDS011;52595;51.608;7.216;2024-03-02T13:07:08;9.00;;;8.30;;
65835;SDS011;52595;51.608;7.216;2024-03-02T13:09:33;9.05;;;8.25;;
65835;SDS011;52595;51.608;7.216;2024-03-02T13:11:59;8.98;;;8.18;;
65835;SDS011;52595;51.608;7.216;2024-03-02T13:14:25;8.77;;;8.00;;
65835;SDS011;52595;51.608;7.216;2024-03-02T13:16:51;8.95;;;8.20;;
65835;SDS011;52595;51.608;7.216;2024-03-02T13:19:17;9.50;;;8.55;;
65835;SDS011;52595;51.608;7.216;2024-03-02T13:21:44;9.40;;;8.50;;
65835;SDS011;52595;51.608;7.216;2024-03-02T13:24:09;9.30;;;8.40;;
65835;SDS011;52595;51.608;7.216;2024-03-02T13:26:35;9.50;;;8.70;;
65835;SDS011;52595;51.608;7.216;2024-03-02T13:29:00;9.63;;;8.73;;
65835;SDS011;52595;51.608;7.216;2024-03-02T13:31:26;9.50;;;8.70;;
65835;SDS011;52595;51.608;7.216;2024-03-02T13:33:51;9.15;;;8.35;;
65835;SDS011;52595;51.608;7.216;2024-03-02T13:36:17;9.65;;;8.60;;
65835;SDS011;52595;51.608;7.216;2024-03-02T13:38:43;9.98;;;9.00;;
65835;SDS011;52595;51.608;7.216;2024-03-02T13:41:08;9.25;;;8.45;;
65835;SDS011;52595;51.608;7.216;2024-03-02T13:43:34;9.50;;;8.60;;
65835;SDS011;52595;51.608;7.216;2024-03-02T13:46:00;8.70;;;8.00;;
65835;SDS011;52595;51.608;7.216;2024-03-02T13:48:27;8.95;;;8.20;;
65835;SDS011;52595;51.608;7.216;2024-03-02T13:50:52;9.10;;;8.30;;
65835;SDS011;52595;51.608;7.216;2024-03-02T13:53:18;9.50;;;8.50;;
65835;SDS011;52595;51.608;7.216;2024-03-02T13:55:44;9.30;;;8.48;;
65835;SDS011;52595;51.608;7.216;2024-03-02T13:58:09;9.13;;;8.23;;
65835;SDS011;52595;51.608;7.216;2024-03-02T14:00:36;9.32;;;8.52;;
65835;SDS011;52595;51.608;7.216;2024-03-02T14:03:02;8.80;;;8.10;;
65835;SDS011;52595;51.608;7.216;2024-03-02T14:05:29;8.90;;;8.20;;
65835;SDS011;52595;51.608;7.216;2024-03-02T14:07:54;8.77;;;8.07;;
65835;SDS011;52595;51.608;7.216;2024-03-02T14:10:19;9.18;;;8.40;;
65835;SDS011;52595;51.608;7.216;2024-03-02T14:12:47;8.90;;;8.20;;
65835;SDS011;52595;51.608;7.216;2024-03-02T14:15:13;9.07;;;8.25;;
65835;SDS011;52595;51.608;7.216;2024-03-02T14:17:38;8.90;;;8.20;;
65835;SDS011;52595;51.608;7.216;2024-03-02T14:20:04;9.10;;;8.30;;
65835;SDS011;52595;51.608;7.216;2024-03-02T14:22:30;9.05;;;8.35;;
65835;SDS011;52595;51.608;7.216;2024-03-02T14:24:56;8.95;;;8.15;;
65835;SDS011;52595;51.608;7.216;2024-03-02T14:27:22;8.85;;;8.15;;
65835;SDS011;52595;51.608;7.216;2024-03-02T14:29:47;8.95;;;8.25;;
65835;SDS011;52595;51.608;7.216;2024-03-02T14:32:13;9.00;;;8.20;;
65835;SDS011;52595;51.608;7.216;2024-03-02T14:34:38;9.18;;;8.48;;
65835;SDS011;52595;51.608;7.216;2024-03-02T14:37:04;9.07;;;8.38;;
65835;SDS011;52595;51.608;7.216;2024-03-02T14:39:29;9.15;;;8.45;;
65835;SDS011;52595;51.608;7.216;2024-03-02T14:41:59;9.50;;;8.60;;
65835;SDS011;52595;51.608;7.216;2024-03-02T14:44:25;9.10;;;8.40;;
65835;SDS011;52595;51.608;7.216;2024-03-02T14:46:51;9.05;;;8.25;;
65835;SDS011;52595;51.608;7.216;2024-03-02T14:49:16;9.20;;;8.50;;
65835;SDS011;52595;51.608;7.216;2024-03-02T14:51:42;9.23;;;8.45;;